createdAt,value
2017-10-05T00:00:33.167Z,947.1
2017-10-05T00:01:41.297Z,947.0
2017-10-05T00:02:49.377Z,947.0
2017-10-05T00:03:57.520Z,947.0
2017-10-05T00:05:05.556Z,947.0
2017-10-05T00:06:13.636Z,947.0
2017-10-05T00:07:21.871Z,947.0
2017-10-05T00:08:29.833Z,947.0
2017-10-05T00:09:38.038Z,947.1
2017-10-05T00:10:46.005Z,947.1
2017-10-05T00:11:55.125Z,947.1
2017-10-05T00:13:02.241Z,947.1
2017-10-05T00:14:10.326Z,947.1
2017-10-05T00:15:18.536Z,947.1
2017-10-05T00:16:26.568Z,947.1
2017-10-05T00:17:34.589Z,947.1
2017-10-05T00:18:42.676Z,947.1
2017-10-05T00:19:50.761Z,947.1
2017-10-05T00:20:58.971Z,947.1
2017-10-05T00:22:06.936Z,947.0
2017-10-05T00:23:15.029Z,947.0
2017-10-05T00:24:23.245Z,947.0
2017-10-05T00:25:31.397Z,947.0
2017-10-05T00:26:39.592Z,947.0
2017-10-05T00:27:47.626Z,947.0
2017-10-05T00:28:55.832Z,947.0
2017-10-05T00:30:03.746Z,947.0
2017-10-05T00:31:11.831Z,947.0
2017-10-05T00:32:20.039Z,947.0
2017-10-05T00:33:28.005Z,947.0
2017-10-05T00:34:36.115Z,947.0
2017-10-05T00:35:44.183Z,947.0
2017-10-05T00:36:52.270Z,947.0
2017-10-05T00:38:00.410Z,947.0
2017-10-05T00:39:08.555Z,947.0
2017-10-05T00:40:16.530Z,947.0
2017-10-05T00:41:24.617Z,947.0
2017-10-05T00:42:32.712Z,947.0
2017-10-05T00:43:40.921Z,946.9
2017-10-05T00:44:48.887Z,947.0
2017-10-05T00:45:56.972Z,946.9
2017-10-05T00:47:05.211Z,946.9
2017-10-05T00:48:13.222Z,946.9
2017-10-05T00:49:21.386Z,946.9
2017-10-05T00:50:29.320Z,946.9
2017-10-05T00:51:37.570Z,946.8
2017-10-05T00:52:45.570Z,946.9
2017-10-05T00:53:53.584Z,946.9
2017-10-05T00:55:01.723Z,946.8
2017-10-05T00:56:09.759Z,946.8
2017-10-05T00:57:17.921Z,946.8
2017-10-05T00:58:25.933Z,946.9
2017-10-05T00:59:34.076Z,946.8
2017-10-05T01:00:42.164Z,946.9
2017-10-05T01:01:50.268Z,946.8
2017-10-05T01:02:58.282Z,946.8
2017-10-05T01:04:06.372Z,946.8
2017-10-05T01:05:14.456Z,946.8
2017-10-05T01:06:22.669Z,946.8
2017-10-05T01:07:30.635Z,946.8
2017-10-05T01:08:38.734Z,946.7
2017-10-05T01:09:46.812Z,946.7
2017-10-05T01:10:55.000Z,946.7
2017-10-05T01:12:03.177Z,946.7
2017-10-05T01:13:11.090Z,946.7
2017-10-05T01:14:19.174Z,946.7
2017-10-05T01:15:27.304Z,946.6
2017-10-05T01:16:35.333Z,946.6
2017-10-05T01:17:43.548Z,946.6
2017-10-05T01:18:51.510Z,946.6
2017-10-05T01:19:59.600Z,946.6
2017-10-05T01:21:07.686Z,946.6
2017-10-05T01:22:15.783Z,946.6
2017-10-05T01:23:23.921Z,946.5
2017-10-05T01:24:31.945Z,946.5
2017-10-05T01:25:40.140Z,946.4
2017-10-05T01:26:48.123Z,946.5
2017-10-05T01:27:56.216Z,946.4
2017-10-05T01:29:04.363Z,946.4
2017-10-05T01:30:12.393Z,946.4
2017-10-05T01:31:20.600Z,946.4
2017-10-05T01:32:28.566Z,946.4
2017-10-05T01:33:36.652Z,946.4
2017-10-05T01:34:44.796Z,946.4
2017-10-05T01:35:52.827Z,946.4
2017-10-05T01:37:00.915Z,946.3
2017-10-05T01:38:09.055Z,946.3
2017-10-05T01:39:17.095Z,946.3
2017-10-05T01:40:25.234Z,946.3
2017-10-05T01:41:33.266Z,946.3
2017-10-05T01:42:41.352Z,946.2
2017-10-05T01:43:49.556Z,946.2
2017-10-05T01:44:57.639Z,946.2
2017-10-05T01:46:05.782Z,946.2
2017-10-05T01:47:13.933Z,946.2
2017-10-05T01:48:21.900Z,946.1
2017-10-05T01:49:29.986Z,946.2
2017-10-05T01:50:38.075Z,946.1
2017-10-05T01:51:46.219Z,946.1
2017-10-05T01:52:54.252Z,946.1
2017-10-05T01:54:02.338Z,946.1
2017-10-05T01:55:10.423Z,946.1
2017-10-05T01:56:18.511Z,946.1
2017-10-05T01:57:26.653Z,946.1
2017-10-05T01:58:34.685Z,946.0
2017-10-05T01:59:42.774Z,946.0
2017-10-05T02:00:50.861Z,946.0
2017-10-05T02:01:58.961Z,946.0
2017-10-05T02:03:07.213Z,946.0
2017-10-05T02:04:15.193Z,945.9
2017-10-05T02:05:23.280Z,945.9
2017-10-05T02:06:31.369Z,945.9
2017-10-05T02:07:39.456Z,945.9
2017-10-05T02:08:47.598Z,945.8
2017-10-05T02:09:55.635Z,945.7
2017-10-05T02:11:03.715Z,945.7
2017-10-05T02:12:11.803Z,945.7
2017-10-05T02:13:19.889Z,945.7
2017-10-05T02:14:28.034Z,945.7
2017-10-05T02:15:36.065Z,945.6
2017-10-05T02:16:44.153Z,945.6
2017-10-05T02:17:52.254Z,945.6
2017-10-05T02:19:00.548Z,945.5
2017-10-05T02:20:08.619Z,945.5
2017-10-05T02:21:16.513Z,945.5
2017-10-05T02:22:24.606Z,945.4
2017-10-05T02:23:32.691Z,945.5
2017-10-05T02:24:40.778Z,945.5
2017-10-05T02:25:48.921Z,945.4
2017-10-05T02:26:56.956Z,945.5
2017-10-05T02:28:05.235Z,945.4
2017-10-05T02:29:13.169Z,945.4
2017-10-05T02:30:21.220Z,945.4
2017-10-05T02:31:29.365Z,945.4
2017-10-05T02:32:37.570Z,945.4
2017-10-05T02:33:45.483Z,945.4
2017-10-05T02:34:53.690Z,945.4
2017-10-05T02:36:01.656Z,945.4
2017-10-05T02:37:09.798Z,945.3
2017-10-05T02:38:17.844Z,945.3
2017-10-05T02:39:25.935Z,945.3
2017-10-05T02:40:34.023Z,945.3
2017-10-05T02:41:42.109Z,945.3
2017-10-05T02:42:50.255Z,945.3
2017-10-05T02:43:58.283Z,945.3
2017-10-05T02:45:06.380Z,945.3
2017-10-05T02:46:14.463Z,945.3
2017-10-05T02:47:22.551Z,945.3
2017-10-05T02:48:30.758Z,945.3
2017-10-05T02:49:38.727Z,945.3
2017-10-05T02:50:47.589Z,945.3
2017-10-05T02:51:55.458Z,945.4
2017-10-05T02:53:03.932Z,945.3
2017-10-05T02:54:12.076Z,945.3
2017-10-05T02:55:20.111Z,945.3
2017-10-05T02:56:28.299Z,945.3
2017-10-05T02:57:36.281Z,945.4
2017-10-05T02:58:44.368Z,945.3
2017-10-05T02:59:52.509Z,945.3
2017-10-05T03:01:00.552Z,945.3
2017-10-05T03:02:08.629Z,945.3
2017-10-05T03:03:16.717Z,945.2
2017-10-05T03:04:24.806Z,945.2
2017-10-05T03:05:32.951Z,945.2
2017-10-05T03:06:41.103Z,945.2
2017-10-05T03:07:49.069Z,945.1
2017-10-05T03:08:57.155Z,945.1
2017-10-05T03:10:05.362Z,945.1
2017-10-05T03:11:13.501Z,945.1
2017-10-05T03:12:21.417Z,945.2
2017-10-05T03:13:29.513Z,945.2
2017-10-05T03:14:37.693Z,945.1
2017-10-05T03:15:45.711Z,945.2
2017-10-05T03:16:53.830Z,945.2
2017-10-05T03:18:01.862Z,945.2
2017-10-05T03:19:10.129Z,945.2
2017-10-05T03:20:18.078Z,945.2
2017-10-05T03:21:26.162Z,945.2
2017-10-05T03:22:34.371Z,945.2
2017-10-05T03:23:42.345Z,945.1
2017-10-05T03:24:50.525Z,945.1
2017-10-05T03:25:58.515Z,945.1
2017-10-05T03:27:06.601Z,945.1
2017-10-05T03:28:14.746Z,945.0
2017-10-05T03:29:22.896Z,945.0
2017-10-05T03:30:30.866Z,945.0
2017-10-05T03:31:38.951Z,945.0
2017-10-05T03:32:47.039Z,945.0
2017-10-05T03:33:55.248Z,945.0
2017-10-05T03:35:03.213Z,945.0
2017-10-05T03:36:11.298Z,945.0
2017-10-05T03:37:19.388Z,945.0
2017-10-05T03:38:27.613Z,944.9
2017-10-05T03:39:35.617Z,944.9
2017-10-05T03:40:43.650Z,944.9
2017-10-05T03:41:51.736Z,944.9
2017-10-05T03:42:59.828Z,944.8
2017-10-05T03:44:07.910Z,944.9
2017-10-05T03:45:16.118Z,944.9
2017-10-05T03:46:24.081Z,944.9
2017-10-05T03:47:32.176Z,944.9
2017-10-05T03:48:40.255Z,944.9
2017-10-05T03:49:48.348Z,944.9
2017-10-05T03:50:56.491Z,944.9
2017-10-05T03:52:04.542Z,944.9
2017-10-05T03:53:12.610Z,944.9
2017-10-05T03:54:20.750Z,944.8
2017-10-05T03:55:28.780Z,944.8
2017-10-05T03:56:36.988Z,944.8
2017-10-05T03:57:44.970Z,944.8
2017-10-05T03:58:53.042Z,944.8
2017-10-05T04:00:01.139Z,944.7
2017-10-05T04:01:09.426Z,944.7
2017-10-05T04:02:17.378Z,944.7
2017-10-05T04:03:25.409Z,944.6
2017-10-05T04:04:33.497Z,944.6
2017-10-05T04:05:41.670Z,944.5
2017-10-05T04:06:49.689Z,944.5
2017-10-05T04:07:57.814Z,944.5
2017-10-05T04:09:05.946Z,944.5
2017-10-05T04:10:14.123Z,944.4
2017-10-05T04:11:22.015Z,944.4
2017-10-05T04:12:30.201Z,944.4
2017-10-05T04:13:38.257Z,944.4
2017-10-05T04:14:46.286Z,944.3
2017-10-05T04:15:54.380Z,944.3
2017-10-05T04:17:02.467Z,944.3
2017-10-05T04:18:10.565Z,944.3
2017-10-05T04:19:18.698Z,944.2
2017-10-05T04:20:27.111Z,944.2
2017-10-05T04:21:34.814Z,944.2
2017-10-05T04:22:42.903Z,944.2
2017-10-05T04:23:50.989Z,944.2
2017-10-05T04:24:59.393Z,944.2
2017-10-05T04:26:07.235Z,944.1
2017-10-05T04:27:15.266Z,944.1
2017-10-05T04:28:23.356Z,944.1
2017-10-05T04:29:31.440Z,944.1
2017-10-05T04:30:39.583Z,944.1
2017-10-05T04:31:47.614Z,944.0
2017-10-05T04:32:55.697Z,944.0
2017-10-05T04:34:03.785Z,944.0
2017-10-05T04:35:11.872Z,944.0
2017-10-05T04:36:20.077Z,944.0
2017-10-05T04:37:28.046Z,944.0
2017-10-05T04:38:36.143Z,944.0
2017-10-05T04:39:44.217Z,944.0
2017-10-05T04:40:52.307Z,944.0
2017-10-05T04:42:00.446Z,944.0
2017-10-05T04:43:08.486Z,944.0
2017-10-05T04:44:16.615Z,944.0
2017-10-05T04:45:25.192Z,944.0
2017-10-05T04:46:32.744Z,944.0
2017-10-05T04:47:41.049Z,944.1
2017-10-05T04:48:48.968Z,944.1
2017-10-05T04:49:57.008Z,944.0
2017-10-05T04:51:05.090Z,944.0
2017-10-05T04:52:13.178Z,944.0
2017-10-05T04:53:21.320Z,944.0
2017-10-05T04:54:29.356Z,944.0
2017-10-05T04:55:37.635Z,943.9
2017-10-05T04:56:46.123Z,943.9
2017-10-05T04:57:54.331Z,943.9
2017-10-05T04:59:02.352Z,943.9
2017-10-05T05:00:10.381Z,943.9
2017-10-05T05:01:18.468Z,943.9
2017-10-05T05:02:26.553Z,943.9
2017-10-05T05:03:34.641Z,943.9
2017-10-05T05:04:42.785Z,943.9
2017-10-05T05:05:51.409Z,943.9
2017-10-05T05:06:59.221Z,943.8
2017-10-05T05:08:07.067Z,943.8
2017-10-05T05:09:15.074Z,943.8
2017-10-05T05:10:23.214Z,943.8
2017-10-05T05:11:31.245Z,943.8
2017-10-05T05:12:39.332Z,943.7
2017-10-05T05:13:47.539Z,943.7
2017-10-05T05:14:55.503Z,943.7
2017-10-05T05:16:03.647Z,943.7
2017-10-05T05:17:11.838Z,943.7
2017-10-05T05:18:19.777Z,943.7
2017-10-05T05:19:27.862Z,943.7
2017-10-05T05:20:35.949Z,943.6
2017-10-05T05:21:44.155Z,943.6
2017-10-05T05:22:52.240Z,943.7
2017-10-05T05:24:00.240Z,943.6
2017-10-05T05:25:08.393Z,943.6
2017-10-05T05:26:16.438Z,943.6
2017-10-05T05:27:24.601Z,943.6
2017-10-05T05:28:32.550Z,943.6
2017-10-05T05:29:40.759Z,943.6
2017-10-05T05:30:48.724Z,943.5
2017-10-05T05:31:56.897Z,943.5
2017-10-05T05:33:04.953Z,943.5
2017-10-05T05:34:12.983Z,943.5
2017-10-05T05:35:21.066Z,943.5
2017-10-05T05:36:29.166Z,943.5
2017-10-05T05:37:37.250Z,943.5
2017-10-05T05:38:45.396Z,943.5
2017-10-05T05:39:53.422Z,943.5
2017-10-05T05:41:01.510Z,943.5
2017-10-05T05:42:09.596Z,943.5
2017-10-05T05:43:17.681Z,943.5
2017-10-05T05:44:25.904Z,943.5
2017-10-05T05:45:33.922Z,943.5
2017-10-05T05:46:41.943Z,943.5
2017-10-05T05:47:50.041Z,943.5
2017-10-05T05:48:58.126Z,943.5
2017-10-05T05:50:06.451Z,943.5
2017-10-05T05:51:14.299Z,943.5
2017-10-05T05:52:22.386Z,943.4
2017-10-05T05:53:30.470Z,943.5
2017-10-05T05:54:38.563Z,943.5
2017-10-05T05:55:46.763Z,943.4
2017-10-05T05:56:54.747Z,943.4
2017-10-05T05:58:02.817Z,943.4
2017-10-05T05:59:10.912Z,943.3
2017-10-05T06:00:18.987Z,943.3
2017-10-05T06:01:27.191Z,943.3
2017-10-05T06:02:35.158Z,943.3
2017-10-05T06:03:43.243Z,943.3
2017-10-05T06:04:51.329Z,943.3
2017-10-05T06:05:59.417Z,943.3
2017-10-05T06:07:07.558Z,943.3
2017-10-05T06:08:15.589Z,943.3
2017-10-05T06:09:23.674Z,943.3
2017-10-05T06:10:31.759Z,943.3
2017-10-05T06:11:39.845Z,943.3
2017-10-05T06:12:48.239Z,943.3
2017-10-05T06:13:56.016Z,943.3
2017-10-05T06:15:04.102Z,943.3
2017-10-05T06:16:12.198Z,943.3
2017-10-05T06:17:20.340Z,943.3
2017-10-05T06:18:28.488Z,943.3
2017-10-05T06:19:36.453Z,943.3
2017-10-05T06:20:44.538Z,943.3
2017-10-05T06:21:52.694Z,943.4
2017-10-05T06:23:00.711Z,943.3
2017-10-05T06:24:08.853Z,943.4
2017-10-05T06:25:16.885Z,943.4
2017-10-05T06:26:25.125Z,943.3
2017-10-05T06:27:33.055Z,943.4
2017-10-05T06:28:41.143Z,943.4
2017-10-05T06:29:49.281Z,943.4
2017-10-05T06:30:57.475Z,943.4
2017-10-05T06:32:05.398Z,943.4
2017-10-05T06:33:13.543Z,943.4
2017-10-05T06:34:21.574Z,943.4
2017-10-05T06:35:29.892Z,943.4
2017-10-05T06:36:37.744Z,943.4
2017-10-05T06:37:45.826Z,943.4
2017-10-05T06:38:53.923Z,943.4
2017-10-05T06:40:02.003Z,943.4
2017-10-05T06:41:10.230Z,943.4
2017-10-05T06:42:18.186Z,943.4
2017-10-05T06:43:26.274Z,943.4
2017-10-05T06:44:34.372Z,943.4
2017-10-05T06:45:42.455Z,943.3
2017-10-05T06:46:50.595Z,943.4
2017-10-05T06:47:58.626Z,943.3
2017-10-05T06:49:06.771Z,943.3
2017-10-05T06:50:14.823Z,943.3
2017-10-05T06:51:22.883Z,943.3
2017-10-05T06:52:31.027Z,943.3
2017-10-05T06:53:39.203Z,943.4
2017-10-05T06:54:47.145Z,943.3
2017-10-05T06:55:55.252Z,943.3
2017-10-05T06:57:03.313Z,943.3
2017-10-05T06:58:11.458Z,943.2
2017-10-05T06:59:19.492Z,943.3
2017-10-05T07:00:27.578Z,943.3
2017-10-05T07:01:35.657Z,943.3
2017-10-05T07:02:43.743Z,943.3
2017-10-05T07:03:52.134Z,943.3
2017-10-05T07:04:59.972Z,943.3
2017-10-05T07:06:08.006Z,943.3
2017-10-05T07:07:16.259Z,943.3
2017-10-05T07:08:24.252Z,943.3
2017-10-05T07:09:32.317Z,943.3
2017-10-05T07:10:40.348Z,943.3
2017-10-05T07:11:48.584Z,943.4
2017-10-05T07:12:56.526Z,943.4
2017-10-05T07:14:04.602Z,943.4
2017-10-05T07:15:12.809Z,943.4
2017-10-05T07:16:20.774Z,943.5
2017-10-05T07:17:28.972Z,943.5
2017-10-05T07:18:36.947Z,943.5
2017-10-05T07:19:45.044Z,943.4
2017-10-05T07:20:53.250Z,943.4
2017-10-05T07:22:01.310Z,943.4
2017-10-05T07:23:09.301Z,943.4
2017-10-05T07:24:17.386Z,943.4
2017-10-05T07:25:25.475Z,943.4
2017-10-05T07:26:33.767Z,943.4
2017-10-05T07:27:41.646Z,943.4
2017-10-05T07:28:49.733Z,943.3
2017-10-05T07:29:57.815Z,943.3
2017-10-05T07:31:05.900Z,943.3
2017-10-05T07:32:14.044Z,943.3
2017-10-05T07:33:22.071Z,943.3
2017-10-05T07:34:30.158Z,943.3
2017-10-05T07:35:38.344Z,943.3
2017-10-05T07:36:46.448Z,943.3
2017-10-05T07:37:54.470Z,943.3
2017-10-05T07:39:02.494Z,943.3
2017-10-05T07:40:10.680Z,943.3
2017-10-05T07:41:18.675Z,943.3
2017-10-05T07:42:26.761Z,943.3
2017-10-05T07:43:34.904Z,943.3
2017-10-05T07:44:43.057Z,943.3
2017-10-05T07:45:51.018Z,943.3
2017-10-05T07:46:59.107Z,943.2
2017-10-05T07:48:07.194Z,943.3
2017-10-05T07:49:15.336Z,943.3
2017-10-05T07:50:23.396Z,943.3
2017-10-05T07:51:31.451Z,943.3
2017-10-05T07:52:39.659Z,943.3
2017-10-05T07:53:47.624Z,943.4
2017-10-05T07:54:55.769Z,943.3
2017-10-05T07:56:03.795Z,943.4
2017-10-05T07:57:11.881Z,943.4
2017-10-05T07:58:19.966Z,943.3
2017-10-05T07:59:28.084Z,943.4
2017-10-05T08:00:36.268Z,943.4
2017-10-05T08:01:44.243Z,943.4
2017-10-05T08:02:52.319Z,943.5
2017-10-05T08:04:00.557Z,943.4
2017-10-05T08:05:08.491Z,943.4
2017-10-05T08:06:16.642Z,943.5
2017-10-05T08:07:24.661Z,943.5
2017-10-05T08:08:32.939Z,943.4
2017-10-05T08:09:40.833Z,943.5
2017-10-05T08:10:48.924Z,943.5
2017-10-05T08:11:57.125Z,943.5
2017-10-05T08:13:05.228Z,943.5
2017-10-05T08:14:13.175Z,943.5
2017-10-05T08:15:21.261Z,943.4
2017-10-05T08:16:29.350Z,943.4
2017-10-05T08:17:37.526Z,943.4
2017-10-05T08:18:45.528Z,943.4
2017-10-05T08:19:53.607Z,943.4
2017-10-05T08:21:01.698Z,943.4
2017-10-05T08:22:09.777Z,943.3
2017-10-05T08:23:17.919Z,943.4
2017-10-05T08:24:26.074Z,943.3
2017-10-05T08:25:34.036Z,943.3
2017-10-05T08:26:42.258Z,943.3
2017-10-05T08:27:50.206Z,943.3
2017-10-05T08:28:58.413Z,943.3
2017-10-05T08:30:06.385Z,943.2
2017-10-05T08:31:14.523Z,943.3
2017-10-05T08:32:22.552Z,943.2
2017-10-05T08:33:30.634Z,943.3
2017-10-05T08:34:38.784Z,943.3
2017-10-05T08:35:46.872Z,943.2
2017-10-05T08:36:54.893Z,943.3
2017-10-05T08:38:02.977Z,943.2
2017-10-05T08:39:11.070Z,943.2
2017-10-05T08:40:19.269Z,943.2
2017-10-05T08:41:27.249Z,943.1
2017-10-05T08:42:35.321Z,943.2
2017-10-05T08:43:43.407Z,943.1
2017-10-05T08:44:51.651Z,943.1
2017-10-05T08:45:59.698Z,943.1
2017-10-05T08:47:07.665Z,943.0
2017-10-05T08:48:15.751Z,943.1
2017-10-05T08:49:23.839Z,943.1
2017-10-05T08:50:32.027Z,943.1
2017-10-05T08:51:40.065Z,943.0
2017-10-05T08:52:48.094Z,943.0
2017-10-05T08:53:56.180Z,943.0
2017-10-05T08:55:04.372Z,943.0
2017-10-05T08:56:12.408Z,943.0
2017-10-05T08:57:20.559Z,943.0
2017-10-05T08:58:28.526Z,942.9
2017-10-05T08:59:36.612Z,942.9
2017-10-05T09:00:44.703Z,942.9
2017-10-05T09:01:52.791Z,942.8
2017-10-05T09:03:00.925Z,942.8
2017-10-05T09:04:09.052Z,942.8
2017-10-05T09:05:17.040Z,942.8
2017-10-05T09:06:25.157Z,942.8
2017-10-05T09:07:33.213Z,942.8
2017-10-05T09:08:41.374Z,942.7
2017-10-05T09:09:49.386Z,942.8
2017-10-05T09:10:57.476Z,942.8
2017-10-05T09:12:05.614Z,942.7
2017-10-05T09:13:13.841Z,942.7
2017-10-05T09:14:21.847Z,942.8
2017-10-05T09:15:29.885Z,942.7
2017-10-05T09:16:37.957Z,942.7
2017-10-05T09:17:46.053Z,942.7
2017-10-05T09:18:54.137Z,942.7
2017-10-05T09:20:02.463Z,942.7
2017-10-05T09:21:10.620Z,942.7
2017-10-05T09:22:18.507Z,942.7
2017-10-05T09:23:26.602Z,942.6
2017-10-05T09:24:34.680Z,942.6
2017-10-05T09:25:42.822Z,942.6
2017-10-05T09:26:50.906Z,942.6
2017-10-05T09:27:59.059Z,942.5
2017-10-05T09:29:07.024Z,942.5
2017-10-05T09:30:15.448Z,942.5
2017-10-05T09:31:24.036Z,942.5
2017-10-05T09:32:31.618Z,942.5
2017-10-05T09:33:39.708Z,942.5
2017-10-05T09:34:47.844Z,942.4
2017-10-05T09:35:55.890Z,942.4
2017-10-05T09:37:04.030Z,942.4
2017-10-05T09:38:12.064Z,942.3
2017-10-05T09:39:20.145Z,942.3
2017-10-05T09:40:28.230Z,942.3
2017-10-05T09:41:36.320Z,942.3
2017-10-05T09:42:44.531Z,942.4
2017-10-05T09:43:52.556Z,942.3
2017-10-05T09:45:00.589Z,942.3
2017-10-05T09:46:08.671Z,942.2
2017-10-05T09:47:16.921Z,942.2
2017-10-05T09:48:25.005Z,942.2
2017-10-05T09:49:32.951Z,942.2
2017-10-05T09:50:41.048Z,942.1
2017-10-05T09:51:49.280Z,942.1
2017-10-05T09:52:57.290Z,942.2
2017-10-05T09:54:05.455Z,942.1
2017-10-05T09:55:13.432Z,942.1
2017-10-05T09:56:21.521Z,942.1
2017-10-05T09:57:29.605Z,942.1
2017-10-05T09:58:37.691Z,942.1
2017-10-05T09:59:45.897Z,942.1
2017-10-05T10:00:53.867Z,942.1
2017-10-05T10:02:01.983Z,942.1
2017-10-05T10:03:10.036Z,942.2
2017-10-05T10:04:18.125Z,942.2
2017-10-05T10:05:26.333Z,942.2
2017-10-05T10:06:34.344Z,942.2
2017-10-05T10:07:42.384Z,942.1
2017-10-05T10:08:50.469Z,942.2
2017-10-05T10:09:58.552Z,942.1
2017-10-05T10:11:06.794Z,942.0
2017-10-05T10:12:14.836Z,942.1
2017-10-05T10:13:22.911Z,942.0
2017-10-05T10:14:31.003Z,942.0
2017-10-05T10:15:39.176Z,942.0
2017-10-05T10:16:47.226Z,942.0
2017-10-05T10:17:55.255Z,942.0
2017-10-05T10:19:03.368Z,942.0
2017-10-05T10:20:11.462Z,942.0
2017-10-05T10:21:19.535Z,941.9
2017-10-05T10:22:27.678Z,941.8
2017-10-05T10:23:35.709Z,941.9
2017-10-05T10:24:43.796Z,941.9
2017-10-05T10:25:51.898Z,942.0
2017-10-05T10:26:59.993Z,942.0
2017-10-05T10:28:08.130Z,941.9
2017-10-05T10:29:16.162Z,941.9
2017-10-05T10:30:24.246Z,941.9
2017-10-05T10:31:32.463Z,941.9
2017-10-05T10:32:40.428Z,941.8
2017-10-05T10:33:48.571Z,941.8
2017-10-05T10:34:56.600Z,941.8
2017-10-05T10:36:04.684Z,941.8
2017-10-05T10:37:12.774Z,941.9
2017-10-05T10:38:21.287Z,942.0
2017-10-05T10:39:29.495Z,941.9
2017-10-05T10:40:37.621Z,941.9
2017-10-05T10:41:45.547Z,941.9
2017-10-05T10:42:53.631Z,941.9
2017-10-05T10:44:01.719Z,941.9
2017-10-05T10:45:10.031Z,941.9
2017-10-05T10:46:17.893Z,941.9
2017-10-05T10:47:26.032Z,941.8
2017-10-05T10:48:34.062Z,941.8
2017-10-05T10:49:42.149Z,941.7
2017-10-05T10:50:50.376Z,941.7
2017-10-05T10:51:58.321Z,941.6
2017-10-05T10:53:06.407Z,941.7
2017-10-05T10:54:14.492Z,941.7
2017-10-05T10:55:22.580Z,941.6
2017-10-05T10:56:30.734Z,941.7
2017-10-05T10:57:38.753Z,941.7
2017-10-05T10:58:46.856Z,941.8
2017-10-05T10:59:54.952Z,941.8
2017-10-05T11:01:03.076Z,941.8
2017-10-05T11:02:11.247Z,941.8
2017-10-05T11:03:19.382Z,941.8
2017-10-05T11:04:27.358Z,941.7
2017-10-05T11:05:35.383Z,941.7
2017-10-05T11:06:43.469Z,941.7
2017-10-05T11:07:51.630Z,941.6
2017-10-05T11:08:59.640Z,941.5
2017-10-05T11:10:07.730Z,941.6
2017-10-05T11:11:15.820Z,941.6
2017-10-05T11:12:24.104Z,941.5
2017-10-05T11:13:32.161Z,941.6
2017-10-05T11:14:40.100Z,941.5
2017-10-05T11:15:48.186Z,941.5
2017-10-05T11:16:56.380Z,941.5
2017-10-05T11:18:04.377Z,941.5
2017-10-05T11:19:12.566Z,941.5
2017-10-05T11:20:20.531Z,941.5
2017-10-05T11:21:29.122Z,941.5
2017-10-05T11:22:36.713Z,941.4
2017-10-05T11:23:44.791Z,941.4
2017-10-05T11:24:52.932Z,941.4
2017-10-05T11:26:00.964Z,941.3
2017-10-05T11:27:09.055Z,941.3
2017-10-05T11:28:17.136Z,941.4
2017-10-05T11:29:25.222Z,941.3
2017-10-05T11:30:33.429Z,941.2
2017-10-05T11:31:41.537Z,941.3
2017-10-05T11:32:49.567Z,941.2
2017-10-05T11:33:57.568Z,941.3
2017-10-05T11:35:05.711Z,941.2
2017-10-05T11:36:13.866Z,941.2
2017-10-05T11:37:21.826Z,941.2
2017-10-05T11:38:29.936Z,941.1
2017-10-05T11:39:38.002Z,941.2
2017-10-05T11:40:46.107Z,941.1
2017-10-05T11:41:54.289Z,941.1
2017-10-05T11:43:02.259Z,941.2
2017-10-05T11:44:10.344Z,941.2
2017-10-05T11:45:18.470Z,941.1
2017-10-05T11:46:26.517Z,941.2
2017-10-05T11:47:34.724Z,941.2
2017-10-05T11:48:42.688Z,941.2
2017-10-05T11:49:50.776Z,941.1
2017-10-05T11:50:58.981Z,941.1
2017-10-05T11:52:06.947Z,941.1
2017-10-05T11:53:15.155Z,941.1
2017-10-05T11:54:23.150Z,941.1
2017-10-05T11:55:31.207Z,941.1
2017-10-05T11:56:39.301Z,941.1
2017-10-05T11:57:47.380Z,941.1
2017-10-05T11:58:55.665Z,941.0
2017-10-05T12:00:03.551Z,941.1
2017-10-05T12:01:11.638Z,941.0
2017-10-05T12:02:19.723Z,941.0
2017-10-05T12:03:27.952Z,941.0
2017-10-05T12:04:36.022Z,940.9
2017-10-05T12:05:43.983Z,940.9
2017-10-05T12:06:52.190Z,940.9
2017-10-05T12:08:00.157Z,940.9
2017-10-05T12:09:08.241Z,940.9
2017-10-05T12:10:16.383Z,940.9
2017-10-05T12:11:24.413Z,940.8
2017-10-05T12:12:32.500Z,940.9
2017-10-05T12:13:40.588Z,940.8
2017-10-05T12:14:48.675Z,940.8
2017-10-05T12:15:56.881Z,940.7
2017-10-05T12:17:04.847Z,940.8
2017-10-05T12:18:12.935Z,940.8
2017-10-05T12:19:21.019Z,940.7
2017-10-05T12:20:29.103Z,940.7
2017-10-05T12:21:37.313Z,940.7
2017-10-05T12:22:45.393Z,940.7
2017-10-05T12:23:53.373Z,940.7
2017-10-05T12:25:01.445Z,940.6
2017-10-05T12:26:09.536Z,940.6
2017-10-05T12:27:17.750Z,940.6
2017-10-05T12:28:25.717Z,940.6
2017-10-05T12:29:33.804Z,940.6
2017-10-05T12:30:41.895Z,940.5
2017-10-05T12:31:49.982Z,940.5
2017-10-05T12:32:58.130Z,940.5
2017-10-05T12:34:06.159Z,940.4
2017-10-05T12:35:14.240Z,940.4
2017-10-05T12:36:22.365Z,940.4
2017-10-05T12:37:30.412Z,940.3
2017-10-05T12:38:38.619Z,940.3
2017-10-05T12:39:46.594Z,940.4
2017-10-05T12:40:54.673Z,940.4
2017-10-05T12:42:02.762Z,940.3
2017-10-05T12:43:10.847Z,940.3
2017-10-05T12:44:19.080Z,940.3
2017-10-05T12:45:27.193Z,940.2
2017-10-05T12:46:35.271Z,940.3
2017-10-05T12:47:43.201Z,940.3
2017-10-05T12:48:51.284Z,940.2
2017-10-05T12:49:59.470Z,940.3
2017-10-05T12:51:07.456Z,940.3
2017-10-05T12:52:15.543Z,940.3
2017-10-05T12:53:23.630Z,940.3
2017-10-05T12:54:31.837Z,940.2
2017-10-05T12:55:39.937Z,940.2
2017-10-05T12:56:47.889Z,940.2
2017-10-05T12:57:55.975Z,940.2
2017-10-05T12:59:04.063Z,940.2
2017-10-05T13:00:12.149Z,940.2
2017-10-05T13:01:20.358Z,940.2
2017-10-05T13:02:28.324Z,940.2
2017-10-05T13:03:36.409Z,940.2
2017-10-05T13:04:44.496Z,940.3
2017-10-05T13:05:52.579Z,940.2
2017-10-05T13:07:00.722Z,940.1
2017-10-05T13:08:08.751Z,940.1
2017-10-05T13:09:16.997Z,940.1
2017-10-05T13:10:25.046Z,940.1
2017-10-05T13:11:33.011Z,940.1
2017-10-05T13:12:41.159Z,940.1
2017-10-05T13:13:49.191Z,940.1
2017-10-05T13:14:57.276Z,940.1
2017-10-05T13:16:05.363Z,940.1
2017-10-05T13:17:13.449Z,940.0
2017-10-05T13:18:21.662Z,940.0
2017-10-05T13:19:29.627Z,940.1
2017-10-05T13:20:37.714Z,940.0
2017-10-05T13:21:45.800Z,940.1
2017-10-05T13:22:53.893Z,940.0
2017-10-05T13:24:02.093Z,940.0
2017-10-05T13:25:10.060Z,940.0
2017-10-05T13:26:18.267Z,940.0
2017-10-05T13:27:26.234Z,940.0
2017-10-05T13:28:34.320Z,940.0
2017-10-05T13:29:42.476Z,940.0
2017-10-05T13:30:50.494Z,940.0
2017-10-05T13:31:58.579Z,940.0
2017-10-05T13:33:06.679Z,939.9
2017-10-05T13:34:14.767Z,940.0
2017-10-05T13:35:22.971Z,939.9
2017-10-05T13:36:30.987Z,939.8
2017-10-05T13:37:39.225Z,939.7
2017-10-05T13:38:47.119Z,939.8
2017-10-05T13:39:55.206Z,939.8
2017-10-05T13:41:03.406Z,939.9
2017-10-05T13:42:11.440Z,939.9
2017-10-05T13:43:19.463Z,939.9
2017-10-05T13:44:27.548Z,939.9
2017-10-05T13:45:35.654Z,939.8
2017-10-05T13:46:43.791Z,939.8
2017-10-05T13:47:51.824Z,939.8
2017-10-05T13:48:59.907Z,939.8
2017-10-05T13:50:08.097Z,939.8
2017-10-05T13:51:16.118Z,939.6
2017-10-05T13:52:24.323Z,939.6
2017-10-05T13:53:32.298Z,939.6
2017-10-05T13:54:40.377Z,939.6
2017-10-05T13:55:48.462Z,939.6
2017-10-05T13:56:56.555Z,939.6
2017-10-05T13:58:04.762Z,939.6
2017-10-05T13:59:12.731Z,939.6
2017-10-05T14:00:20.924Z,939.6
2017-10-05T14:01:28.917Z,939.6
2017-10-05T14:02:36.990Z,939.6
2017-10-05T14:03:48.653Z,939.7
2017-10-05T14:04:53.160Z,939.7
2017-10-05T14:06:01.247Z,939.6
2017-10-05T14:07:09.334Z,939.6
2017-10-05T14:08:17.609Z,939.6
2017-10-05T14:09:25.627Z,939.7
2017-10-05T14:10:33.595Z,939.6
2017-10-05T14:11:41.695Z,939.6
2017-10-05T14:12:49.958Z,939.7
2017-10-05T14:13:57.925Z,939.6
2017-10-05T14:15:06.078Z,939.6
2017-10-05T14:16:14.041Z,939.6
2017-10-05T14:17:22.127Z,939.6
2017-10-05T14:18:30.214Z,939.6
2017-10-05T14:19:38.300Z,939.6
2017-10-05T14:20:46.504Z,939.5
2017-10-05T14:21:54.477Z,939.6
2017-10-05T14:23:02.580Z,939.6
2017-10-05T14:24:10.649Z,939.5
2017-10-05T14:25:18.732Z,939.6
2017-10-05T14:26:26.956Z,939.6
2017-10-05T14:27:34.910Z,939.6
2017-10-05T14:28:43.007Z,939.5
2017-10-05T14:29:51.198Z,939.4
2017-10-05T14:30:59.328Z,939.4
2017-10-05T14:32:07.479Z,939.4
2017-10-05T14:33:15.352Z,939.4
2017-10-05T14:34:23.439Z,939.4
2017-10-05T14:35:31.528Z,939.4
2017-10-05T14:36:39.617Z,939.5